sensor_id;sensor_type;location;lat;lon;timestamp;pressure;altitude;pressure_sealevel;temperature;humidity
73566;BME280;61846;52.970;-3.168;2022-10-16T00:01:06;98990.46;;;12.19;46.99
73566;BME280;61846;52.970;-3.168;2022-10-16T00:03:27;98984.36;;;13.32;45.91
73566;BME280;61846;52.970;-3.168;2022-10-16T00:05:53;98968.42;;;13.05;45.96
73566;BME280;61846;52.970;-3.168;2022-10-16T00:08:18;98970.87;;;13.09;45.14
73566;BME280;61846;52.970;-3.168;2022-10-16T00:10:44;98976.89;;;13.57;44.54
73566;BME280;61846;52.970;-3.168;2022-10-16T00:13:09;98988.89;;;12.15;46.41
73566;BME280;61846;52.970;-3.168;2022-10-16T00:15:35;98999.68;;;13.56;44.89
73566;BME280;61846;52.970;-3.168;2022-10-16T00:18:00;99005.81;;;13.24;44.31
73566;BME280;61846;52.970;-3.168;2022-10-16T00:20:26;98999.24;;;13.74;44.39
73566;BME280;61846;52.970;-3.168;2022-10-16T00:22:52;99022.39;;;13.64;44.08
73566;BME280;61846;52.970;-3.168;2022-10-16T00:25:17;99037.34;;;13.04;45.64
73566;BME280;61846;52.970;-3.168;2022-10-16T00:27:43;99036.82;;;12.71;46.63
73566;BME280;61846;52.970;-3.168;2022-10-16T00:30:09;99062.83;;;11.96;47.83
73566;BME280;61846;52.970;-3.168;2022-10-16T00:32:33;99054.76;;;12.06;48.11
73566;BME280;61846;52.970;-3.168;2022-10-16T00:34:59;99060.76;;;12.44;48.01
73566;BME280;61846;52.970;-3.168;2022-10-16T00:37:25;99064.80;;;12.41;47.70
73566;BME280;61846;52.970;-3.168;2022-10-16T00:39:50;99049.42;;;11.96;46.70
73566;BME280;61846;52.970;-3.168;2022-10-16T00:42:17;99047.58;;;12.43;46.66
73566;BME280;61846;52.970;-3.168;2022-10-16T00:44:46;99051.87;;;12.56;45.83
73566;BME280;61846;52.970;-3.168;2022-10-16T00:47:08;99060.59;;;11.53;47.76
73566;BME280;61846;52.970;-3.168;2022-10-16T00:49:33;99058.20;;;12.36;46.26
73566;BME280;61846;52.970;-3.168;2022-10-16T00:51:58;99060.64;;;12.13;46.82
73566;BME280;61846;52.970;-3.168;2022-10-16T00:54:26;99058.12;;;12.37;46.83
73566;BME280;61846;52.970;-3.168;2022-10-16T00:56:49;99056.75;;;12.64;45.75
73566;BME280;61846;52.970;-3.168;2022-10-16T00:59:16;99055.08;;;12.52;45.47
73566;BME280;61846;52.970;-3.168;2022-10-16T01:01:40;99063.23;;;11.59;47.40
73566;BME280;61846;52.970;-3.168;2022-10-16T01:04:05;99058.19;;;11.25;48.42
73566;BME280;61846;52.970;-3.168;2022-10-16T01:06:36;99073.30;;;11.80;46.58
73566;BME280;61846;52.970;-3.168;2022-10-16T01:09:06;99083.13;;;11.27;47.84
73566;BME280;61846;52.970;-3.168;2022-10-16T01:11:27;99087.33;;;11.94;47.09
73566;BME280;61846;52.970;-3.168;2022-10-16T01:13:52;99088.41;;;11.72;47.18
73566;BME280;61846;52.970;-3.168;2022-10-16T01:16:17;99093.85;;;12.04;46.72
73566;BME280;61846;52.970;-3.168;2022-10-16T01:18:44;99094.46;;;12.31;45.33
73566;BME280;61846;52.970;-3.168;2022-10-16T01:21:07;99098.91;;;11.93;46.00
73566;BME280;61846;52.970;-3.168;2022-10-16T01:23:41;99100.64;;;11.89;46.15
73566;BME280;61846;52.970;-3.168;2022-10-16T01:26:07;99103.89;;;11.98;46.32
73566;BME280;61846;52.970;-3.168;2022-10-16T01:28:24;99109.73;;;11.31;47.70
73566;BME280;61846;52.970;-3.168;2022-10-16T01:30:47;99112.50;;;11.39;46.24
73566;BME280;61846;52.970;-3.168;2022-10-16T01:33:17;99123.12;;;11.27;47.77
73566;BME280;61846;52.970;-3.168;2022-10-16T01:35:42;99132.12;;;12.05;46.10
73566;BME280;61846;52.970;-3.168;2022-10-16T01:38:06;99140.28;;;12.14;46.92
73566;BME280;61846;52.970;-3.168;2022-10-16T01:40:30;99147.32;;;11.01;47.77
73566;BME280;61846;52.970;-3.168;2022-10-16T01:43:00;99146.08;;;10.38;49.69
73566;BME280;61846;52.970;-3.168;2022-10-16T01:45:21;99147.83;;;10.89;49.21
73566;BME280;61846;52.970;-3.168;2022-10-16T01:47:46;99146.06;;;11.30;48.42
73566;BME280;61846;52.970;-3.168;2022-10-16T01:50:13;99156.76;;;11.86;46.72
73566;BME280;61846;52.970;-3.168;2022-10-16T01:52:40;99161.62;;;11.23;48.02
73566;BME280;61846;52.970;-3.168;2022-10-16T01:55:05;99165.09;;;11.36;46.90
73566;BME280;61846;52.970;-3.168;2022-10-16T01:57:28;99166.78;;;11.45;47.58
73566;BME280;61846;52.970;-3.168;2022-10-16T01:59:56;99170.39;;;10.74;49.25
73566;BME280;61846;52.970;-3.168;2022-10-16T02:02:20;99167.74;;;10.31;49.38
73566;BME280;61846;52.970;-3.168;2022-10-16T02:04:46;99172.55;;;10.86;48.63
73566;BME280;61846;52.970;-3.168;2022-10-16T02:07:11;99175.18;;;10.94;49.27
73566;BME280;61846;52.970;-3.168;2022-10-16T02:09:36;99183.09;;;10.38;49.69
73566;BME280;61846;52.970;-3.168;2022-10-16T02:12:07;99195.21;;;11.53;48.12
73566;BME280;61846;52.970;-3.168;2022-10-16T02:14:28;99200.75;;;11.07;47.40
73566;BME280;61846;52.970;-3.168;2022-10-16T02:16:53;99223.23;;;11.33;46.63
73566;BME280;61846;52.970;-3.168;2022-10-16T02:19:19;99222.50;;;10.70;47.42
73566;BME280;61846;52.970;-3.168;2022-10-16T02:21:49;99225.67;;;10.63;48.41
73566;BME280;61846;52.970;-3.168;2022-10-16T02:24:14;99225.49;;;11.14;47.06
73566;BME280;61846;52.970;-3.168;2022-10-16T02:26:40;99237.59;;;11.51;46.77
73566;BME280;61846;52.970;-3.168;2022-10-16T02:29:04;99249.18;;;11.32;46.18
73566;BME280;61846;52.970;-3.168;2022-10-16T02:31:28;99261.34;;;11.11;46.02
73566;BME280;61846;52.970;-3.168;2022-10-16T02:36:17;99261.31;;;10.36;46.12
73566;BME280;61846;52.970;-3.168;2022-10-16T02:38:43;99271.19;;;10.19;46.44
73566;BME280;61846;52.970;-3.168;2022-10-16T02:41:08;99269.21;;;10.70;46.33
73566;BME280;61846;52.970;-3.168;2022-10-16T02:43:34;99275.26;;;11.31;45.53
73566;BME280;61846;52.970;-3.168;2022-10-16T02:46:00;99281.55;;;11.56;44.77
73566;BME280;61846;52.970;-3.168;2022-10-16T02:48:25;99295.06;;;10.76;45.80
73566;BME280;61846;52.970;-3.168;2022-10-16T02:50:51;99294.01;;;11.11;45.85
73566;BME280;61846;52.970;-3.168;2022-10-16T02:53:16;99300.00;;;11.38;44.75
73566;BME280;61846;52.970;-3.168;2022-10-16T02:55:42;99302.19;;;10.35;47.27
73566;BME280;61846;52.970;-3.168;2022-10-16T02:58:07;99307.30;;;11.02;45.57
73566;BME280;61846;52.970;-3.168;2022-10-16T03:00:33;99315.52;;;10.58;45.78
73566;BME280;61846;52.970;-3.168;2022-10-16T03:02:59;99321.63;;;11.06;44.60
73566;BME280;61846;52.970;-3.168;2022-10-16T03:05:24;99327.18;;;10.21;46.20
73566;BME280;61846;52.970;-3.168;2022-10-16T03:07:50;99336.91;;;11.00;44.77
73566;BME280;61846;52.970;-3.168;2022-10-16T03:10:15;99338.98;;;10.26;46.36
73566;BME280;61846;52.970;-3.168;2022-10-16T03:12:41;99346.58;;;10.66;45.34
73566;BME280;61846;52.970;-3.168;2022-10-16T03:15:08;99339.82;;;11.06;44.26
73566;BME280;61846;52.970;-3.168;2022-10-16T03:17:33;99353.22;;;10.43;45.14
73566;BME280;61846;52.970;-3.168;2022-10-16T03:19:58;99356.76;;;11.93;43.69
73566;BME280;61846;52.970;-3.168;2022-10-16T03:22:23;99356.68;;;11.74;43.98
73566;BME280;61846;52.970;-3.168;2022-10-16T03:24:49;99359.83;;;11.96;42.34
73566;BME280;61846;52.970;-3.168;2022-10-16T03:27:14;99367.22;;;11.77;42.50
73566;BME280;61846;52.970;-3.168;2022-10-16T03:29:40;99371.57;;;12.23;42.11
73566;BME280;61846;52.970;-3.168;2022-10-16T03:32:05;99375.15;;;11.59;43.02
73566;BME280;61846;52.970;-3.168;2022-10-16T03:34:31;99382.94;;;12.22;41.84
73566;BME280;61846;52.970;-3.168;2022-10-16T03:36:57;99377.06;;;12.09;41.37
73566;BME280;61846;52.970;-3.168;2022-10-16T03:39:22;99375.66;;;12.64;41.38
73566;BME280;61846;52.970;-3.168;2022-10-16T03:41:48;99380.70;;;12.43;41.32
73566;BME280;61846;52.970;-3.168;2022-10-16T03:44:13;99394.80;;;12.30;41.53
73566;BME280;61846;52.970;-3.168;2022-10-16T03:46:39;99396.34;;;12.57;40.99
73566;BME280;61846;52.970;-3.168;2022-10-16T03:49:05;99410.55;;;12.78;41.18
73566;BME280;61846;52.970;-3.168;2022-10-16T03:51:30;99416.19;;;11.48;41.25
73566;BME280;61846;52.970;-3.168;2022-10-16T03:53:56;99425.59;;;12.11;39.97
73566;BME280;61846;52.970;-3.168;2022-10-16T03:56:21;99430.05;;;11.48;41.28
73566;BME280;61846;52.970;-3.168;2022-10-16T03:58:47;99426.44;;;10.85;42.21
73566;BME280;61846;52.970;-3.168;2022-10-16T04:01:12;99439.52;;;11.48;41.30
73566;BME280;61846;52.970;-3.168;2022-10-16T04:03:38;99439.60;;;11.25;42.07
73566;BME280;61846;52.970;-3.168;2022-10-16T04:06:04;99443.91;;;11.13;43.01
73566;BME280;61846;52.970;-3.168;2022-10-16T04:08:29;99446.12;;;10.80;42.99
73566;BME280;61846;52.970;-3.168;2022-10-16T04:10:55;99446.65;;;11.06;42.47
73566;BME280;61846;52.970;-3.168;2022-10-16T04:13:20;99450.26;;;11.50;42.38
73566;BME280;61846;52.970;-3.168;2022-10-16T04:15:46;99452.48;;;11.14;43.71
73566;BME280;61846;52.970;-3.168;2022-10-16T04:18:12;99454.92;;;11.23;42.47
73566;BME280;61846;52.970;-3.168;2022-10-16T04:20:37;99463.26;;;10.46;44.58
73566;BME280;61846;52.970;-3.168;2022-10-16T04:23:03;99459.81;;;10.07;46.04
73566;BME280;61846;52.970;-3.168;2022-10-16T04:25:28;99468.60;;;9.94;45.73
73566;BME280;61846;52.970;-3.168;2022-10-16T04:27:54;99471.98;;;10.80;44.66
73566;BME280;61846;52.970;-3.168;2022-10-16T04:30:20;99476.09;;;10.61;44.60
73566;BME280;61846;52.970;-3.168;2022-10-16T04:32:48;99487.79;;;11.19;43.30
73566;BME280;61846;52.970;-3.168;2022-10-16T04:35:11;99490.17;;;10.75;44.63
73566;BME280;61846;52.970;-3.168;2022-10-16T04:37:36;99500.50;;;10.68;44.13
73566;BME280;61846;52.970;-3.168;2022-10-16T04:40:03;99510.23;;;10.33;44.55
73566;BME280;61846;52.970;-3.168;2022-10-16T04:42:28;99511.55;;;10.15;44.63
73566;BME280;61846;52.970;-3.168;2022-10-16T04:44:53;99508.00;;;10.21;44.74
73566;BME280;61846;52.970;-3.168;2022-10-16T04:47:19;99508.51;;;9.77;45.22
73566;BME280;61846;52.970;-3.168;2022-10-16T04:49:44;99514.93;;;10.45;43.79
73566;BME280;61846;52.970;-3.168;2022-10-16T04:52:10;99518.31;;;11.34;43.05
73566;BME280;61846;52.970;-3.168;2022-10-16T04:54:35;99522.73;;;10.84;42.23
73566;BME280;61846;52.970;-3.168;2022-10-16T04:57:01;99531.14;;;11.57;41.56
73566;BME280;61846;52.970;-3.168;2022-10-16T04:59:27;99534.05;;;11.25;41.83
73566;BME280;61846;52.970;-3.168;2022-10-16T05:01:52;99536.04;;;11.65;41.29
73566;BME280;61846;52.970;-3.168;2022-10-16T05:04:18;99542.35;;;11.16;41.92
73566;BME280;61846;52.970;-3.168;2022-10-16T05:06:43;99541.96;;;11.64;41.64
73566;BME280;61846;52.970;-3.168;2022-10-16T05:09:09;99549.94;;;11.70;40.82
73566;BME280;61846;52.970;-3.168;2022-10-16T05:11:35;99558.27;;;12.54;40.89
73566;BME280;61846;52.970;-3.168;2022-10-16T05:14:00;99566.87;;;12.56;40.52
73566;BME280;61846;52.970;-3.168;2022-10-16T05:16:26;99566.19;;;12.75;39.98
73566;BME280;61846;52.970;-3.168;2022-10-16T05:18:52;99568.44;;;12.86;40.06
73566;BME280;61846;52.970;-3.168;2022-10-16T05:21:17;99569.75;;;12.44;39.68
73566;BME280;61846;52.970;-3.168;2022-10-16T05:23:42;99583.97;;;11.25;41.59
73566;BME280;61846;52.970;-3.168;2022-10-16T05:26:08;99591.85;;;11.85;41.19
73566;BME280;61846;52.970;-3.168;2022-10-16T05:28:33;99596.43;;;12.00;41.11
73566;BME280;61846;52.970;-3.168;2022-10-16T05:30:59;99593.63;;;12.25;41.54
73566;BME280;61846;52.970;-3.168;2022-10-16T05:33:25;99601.61;;;12.31;40.57
73566;BME280;61846;52.970;-3.168;2022-10-16T05:35:50;99598.55;;;12.60;40.22
73566;BME280;61846;52.970;-3.168;2022-10-16T05:38:16;99600.28;;;11.96;41.61
73566;BME280;61846;52.970;-3.168;2022-10-16T05:40:41;99600.55;;;12.73;40.53
73566;BME280;61846;52.970;-3.168;2022-10-16T05:43:07;99603.99;;;12.17;40.68
73566;BME280;61846;52.970;-3.168;2022-10-16T05:45:32;99605.37;;;12.75;40.08
73566;BME280;61846;52.970;-3.168;2022-10-16T05:47:58;99613.95;;;12.68;40.26
73566;BME280;61846;52.970;-3.168;2022-10-16T05:50:23;99616.50;;;12.80;39.78
73566;BME280;61846;52.970;-3.168;2022-10-16T05:52:49;99619.88;;;12.65;39.77
73566;BME280;61846;52.970;-3.168;2022-10-16T05:55:15;99622.74;;;12.85;39.86
73566;BME280;61846;52.970;-3.168;2022-10-16T05:57:40;99621.37;;;12.70;40.52
73566;BME280;61846;52.970;-3.168;2022-10-16T06:00:07;99622.99;;;12.77;40.30
73566;BME280;61846;52.970;-3.168;2022-10-16T06:02:31;99630.59;;;12.98;40.06
73566;BME280;61846;52.970;-3.168;2022-10-16T06:04:57;99638.18;;;13.06;40.05
73566;BME280;61846;52.970;-3.168;2022-10-16T06:07:23;99641.29;;;13.02;40.78
73566;BME280;61846;52.970;-3.168;2022-10-16T06:09:48;99644.20;;;12.76;40.16
73566;BME280;61846;52.970;-3.168;2022-10-16T06:12:14;99647.95;;;12.89;40.02
73566;BME280;61846;52.970;-3.168;2022-10-16T06:14:39;99647.53;;;13.06;39.80
73566;BME280;61846;52.970;-3.168;2022-10-16T06:17:05;99657.60;;;13.08;39.51
73566;BME280;61846;52.970;-3.168;2022-10-16T06:19:30;99666.72;;;12.98;40.03
73566;BME280;61846;52.970;-3.168;2022-10-16T06:21:56;99663.72;;;12.80;40.14
73566;BME280;61846;52.970;-3.168;2022-10-16T06:24:22;99663.44;;;12.59;40.48
73566;BME280;61846;52.970;-3.168;2022-10-16T06:26:47;99668.57;;;12.92;39.96
73566;BME280;61846;52.970;-3.168;2022-10-16T06:29:13;99681.06;;;12.58;40.15
73566;BME280;61846;52.970;-3.168;2022-10-16T06:31:38;99681.13;;;12.71;40.31
73566;BME280;61846;52.970;-3.168;2022-10-16T06:34:04;99688.37;;;12.69;40.38
73566;BME280;61846;52.970;-3.168;2022-10-16T06:36:29;99693.98;;;12.90;39.90
73566;BME280;61846;52.970;-3.168;2022-10-16T06:38:55;99701.47;;;12.74;40.01
73566;BME280;61846;52.970;-3.168;2022-10-16T06:41:22;99694.35;;;12.40;40.06
73566;BME280;61846;52.970;-3.168;2022-10-16T06:43:46;99700.91;;;12.21;40.93
73566;BME280;61846;52.970;-3.168;2022-10-16T06:46:13;99701.71;;;12.78;40.08
73566;BME280;61846;52.970;-3.168;2022-10-16T06:48:38;99706.99;;;12.56;39.90
73566;BME280;61846;52.970;-3.168;2022-10-16T06:51:05;99713.51;;;13.08;39.49
73566;BME280;61846;52.970;-3.168;2022-10-16T06:53:31;99717.62;;;12.39;40.58
73566;BME280;61846;52.970;-3.168;2022-10-16T06:55:54;99725.20;;;12.03;40.88
73566;BME280;61846;52.970;-3.168;2022-10-16T06:58:20;99729.17;;;12.00;41.01
73566;BME280;61846;52.970;-3.168;2022-10-16T07:00:45;99737.30;;;12.52;40.64
73566;BME280;61846;52.970;-3.168;2022-10-16T07:03:11;99751.94;;;12.12;41.31
73566;BME280;61846;52.970;-3.168;2022-10-16T07:05:37;99763.22;;;11.84;41.13
73566;BME280;61846;52.970;-3.168;2022-10-16T07:08:02;99774.40;;;11.83;41.95
73566;BME280;61846;52.970;-3.168;2022-10-16T07:10:28;99776.74;;;12.18;41.06
73566;BME280;61846;52.970;-3.168;2022-10-16T07:12:53;99782.11;;;11.64;41.93
73566;BME280;61846;52.970;-3.168;2022-10-16T07:15:19;99782.05;;;11.85;41.12
73566;BME280;61846;52.970;-3.168;2022-10-16T07:17:44;99783.77;;;11.26;42.57
73566;BME280;61846;52.970;-3.168;2022-10-16T07:20:10;99778.83;;;11.66;41.96
73566;BME280;61846;52.970;-3.168;2022-10-16T07:22:35;99779.11;;;11.86;41.37
73566;BME280;61846;52.970;-3.168;2022-10-16T07:25:01;99784.75;;;11.94;40.80
73566;BME280;61846;52.970;-3.168;2022-10-16T07:27:28;99784.05;;;11.56;41.98
73566;BME280;61846;52.970;-3.168;2022-10-16T07:29:52;99792.52;;;11.80;41.31
73566;BME280;61846;52.970;-3.168;2022-10-16T07:32:18;99798.71;;;12.00;41.15
73566;BME280;61846;52.970;-3.168;2022-10-16T07:34:44;99806.26;;;11.91;41.32
73566;BME280;61846;52.970;-3.168;2022-10-16T07:37:09;99803.22;;;11.96;41.02
73566;BME280;61846;52.970;-3.168;2022-10-16T07:39:34;99805.97;;;11.82;41.00
73566;BME280;61846;52.970;-3.168;2022-10-16T07:42:00;99812.19;;;11.70;41.59
73566;BME280;61846;52.970;-3.168;2022-10-16T07:44:26;99818.07;;;11.69;41.88
73566;BME280;61846;52.970;-3.168;2022-10-16T07:46:51;99824.63;;;11.82;41.46
73566;BME280;61846;52.970;-3.168;2022-10-16T07:49:17;99828.62;;;11.58;42.46
73566;BME280;61846;52.970;-3.168;2022-10-16T07:51:42;99834.91;;;11.50;42.78
73566;BME280;61846;52.970;-3.168;2022-10-16T07:54:08;99843.36;;;11.00;43.66
73566;BME280;61846;52.970;-3.168;2022-10-16T07:56:32;99849.46;;;11.21;43.34
73566;BME280;61846;52.970;-3.168;2022-10-16T07:58:57;99853.15;;;11.81;43.82
73566;BME280;61846;52.970;-3.168;2022-10-16T08:01:23;99857.93;;;11.47;43.40
73566;BME280;61846;52.970;-3.168;2022-10-16T08:03:49;99861.20;;;12.17;43.21
73566;BME280;61846;52.970;-3.168;2022-10-16T08:06:14;99865.91;;;12.44;42.48
73566;BME280;61846;52.970;-3.168;2022-10-16T08:08:40;99866.86;;;12.32;43.63
73566;BME280;61846;52.970;-3.168;2022-10-16T08:11:04;99874.48;;;12.54;43.67
73566;BME280;61846;52.970;-3.168;2022-10-16T08:13:30;99878.67;;;12.56;43.65
73566;BME280;61846;52.970;-3.168;2022-10-16T08:15:55;99883.22;;;12.70;43.62
73566;BME280;61846;52.970;-3.168;2022-10-16T08:18:21;99884.85;;;13.02;42.58
73566;BME280;61846;52.970;-3.168;2022-10-16T08:20:47;99890.58;;;13.01;42.23
73566;BME280;61846;52.970;-3.168;2022-10-16T08:23:14;99892.44;;;13.03;43.09
73566;BME280;61846;52.970;-3.168;2022-10-16T08:25:37;99891.84;;;12.19;42.76
73566;BME280;61846;52.970;-3.168;2022-10-16T08:28:03;99894.75;;;11.77;41.65
73566;BME280;61846;52.970;-3.168;2022-10-16T08:30:28;99898.50;;;11.72;42.42
73566;BME280;61846;52.970;-3.168;2022-10-16T08:32:54;99904.25;;;12.24;41.77
73566;BME280;61846;52.970;-3.168;2022-10-16T08:35:19;99911.60;;;12.44;40.56
73566;BME280;61846;52.970;-3.168;2022-10-16T08:37:45;99923.73;;;13.18;40.45
73566;BME280;61846;52.970;-3.168;2022-10-16T08:40:17;99934.92;;;12.94;40.03
73566;BME280;61846;52.970;-3.168;2022-10-16T08:42:46;99941.10;;;12.78;37.81
73566;BME280;61846;52.970;-3.168;2022-10-16T08:45:13;99940.86;;;13.26;37.41
73566;BME280;61846;52.970;-3.168;2022-10-16T08:47:35;99946.93;;;13.64;38.17
73566;BME280;61846;52.970;-3.168;2022-10-16T08:49:58;99951.10;;;14.03;37.77
73566;BME280;61846;52.970;-3.168;2022-10-16T08:52:18;99948.78;;;14.84;36.17
73566;BME280;61846;52.970;-3.168;2022-10-16T08:54:47;99945.00;;;14.69;35.36
73566;BME280;61846;52.970;-3.168;2022-10-16T08:57:12;99947.30;;;15.16;36.30
73566;BME280;61846;52.970;-3.168;2022-10-16T08:59:35;99949.23;;;15.46;36.16
73566;BME280;61846;52.970;-3.168;2022-10-16T09:02:01;99946.66;;;15.58;35.43
73566;BME280;61846;52.970;-3.168;2022-10-16T09:04:42;99948.43;;;15.90;35.21
73566;BME280;61846;52.970;-3.168;2022-10-16T09:06:55;99950.02;;;16.21;33.47
73566;BME280;61846;52.970;-3.168;2022-10-16T09:09:38;99948.36;;;16.62;33.58
73566;BME280;61846;52.970;-3.168;2022-10-16T09:11:48;99953.66;;;16.63;32.88
73566;BME280;61846;52.970;-3.168;2022-10-16T09:14:18;99952.99;;;16.11;33.96
73566;BME280;61846;52.970;-3.168;2022-10-16T09:16:37;99950.47;;;16.52;33.71
73566;BME280;61846;52.970;-3.168;2022-10-16T09:19:03;99946.85;;;16.31;31.16
73566;BME280;61846;52.970;-3.168;2022-10-16T09:21:27;99955.98;;;16.77;33.32
73566;BME280;61846;52.970;-3.168;2022-10-16T09:23:50;99971.92;;;16.52;33.44
73566;BME280;61846;52.970;-3.168;2022-10-16T09:26:16;99978.02;;;17.25;32.26
73566;BME280;61846;52.970;-3.168;2022-10-16T09:28:41;99981.81;;;17.33;31.39
73566;BME280;61846;52.970;-3.168;2022-10-16T09:31:13;99986.94;;;17.55;31.30
73566;BME280;61846;52.970;-3.168;2022-10-16T09:33:35;99991.14;;;17.00;31.03
73566;BME280;61846;52.970;-3.168;2022-10-16T09:35:57;100002.74;;;17.87;31.21
73566;BME280;61846;52.970;-3.168;2022-10-16T09:38:26;100017.39;;;17.61;31.50
73566;BME280;61846;52.970;-3.168;2022-10-16T09:40:48;100019.59;;;17.87;29.67
73566;BME280;61846;52.970;-3.168;2022-10-16T09:43:21;100022.58;;;18.58;29.69
73566;BME280;61846;52.970;-3.168;2022-10-16T09:45:39;100019.49;;;18.14;29.70
73566;BME280;61846;52.970;-3.168;2022-10-16T09:48:10;100018.43;;;18.53;30.47
73566;BME280;61846;52.970;-3.168;2022-10-16T09:50:30;100020.89;;;18.24;30.17
73566;BME280;61846;52.970;-3.168;2022-10-16T09:53:05;100023.79;;;18.47;31.13
73566;BME280;61846;52.970;-3.168;2022-10-16T09:55:20;100029.63;;;17.81;30.22
73566;BME280;61846;52.970;-3.168;2022-10-16T09:57:49;100032.86;;;18.51;29.87
73566;BME280;61846;52.970;-3.168;2022-10-16T10:00:16;100034.08;;;18.69;29.16
73566;BME280;61846;52.970;-3.168;2022-10-16T10:02:37;100032.80;;;18.09;29.65
73566;BME280;61846;52.970;-3.168;2022-10-16T10:05:04;100021.26;;;18.86;28.47
73566;BME280;61846;52.970;-3.168;2022-10-16T10:07:31;100022.77;;;18.35;29.21
73566;BME280;61846;52.970;-3.168;2022-10-16T10:09:53;100011.83;;;19.02;28.88
73566;BME280;61846;52.970;-3.168;2022-10-16T10:12:20;100000.68;;;19.17;28.74
73566;BME280;61846;52.970;-3.168;2022-10-16T10:14:46;99999.66;;;19.71;27.89
73566;BME280;61846;52.970;-3.168;2022-10-16T10:17:15;100007.68;;;20.30;27.40
73566;BME280;61846;52.970;-3.168;2022-10-16T10:19:38;100024.70;;;19.90;27.92
73566;BME280;61846;52.970;-3.168;2022-10-16T10:22:00;100039.92;;;19.72;27.78
73566;BME280;61846;52.970;-3.168;2022-10-16T10:24:25;100040.60;;;20.04;27.03
73566;BME280;61846;52.970;-3.168;2022-10-16T10:26:56;100043.89;;;20.32;27.20
73566;BME280;61846;52.970;-3.168;2022-10-16T10:29:25;100049.33;;;19.25;27.95
73566;BME280;61846;52.970;-3.168;2022-10-16T10:31:44;100052.74;;;18.64;28.21
73566;BME280;61846;52.970;-3.168;2022-10-16T10:34:18;100048.87;;;19.72;27.98
73566;BME280;61846;52.970;-3.168;2022-10-16T10:36:35;100038.00;;;19.06;28.78
73566;BME280;61846;52.970;-3.168;2022-10-16T10:38:59;100028.64;;;19.16;28.21
73566;BME280;61846;52.970;-3.168;2022-10-16T10:43:58;100037.37;;;19.67;28.56
73566;BME280;61846;52.970;-3.168;2022-10-16T10:46:18;100035.95;;;19.60;28.95
73566;BME280;61846;52.970;-3.168;2022-10-16T10:48:51;100032.89;;;18.91;29.05
73566;BME280;61846;52.970;-3.168;2022-10-16T10:51:08;100030.14;;;19.33;29.27
73566;BME280;61846;52.970;-3.168;2022-10-16T10:53:38;100025.50;;;18.83;31.16
73566;BME280;61846;52.970;-3.168;2022-10-16T10:56:04;100023.81;;;19.36;29.37
73566;BME280;61846;52.970;-3.168;2022-10-16T10:58:37;100020.43;;;19.68;29.09
73566;BME280;61846;52.970;-3.168;2022-10-16T11:00:54;100014.53;;;19.93;29.15
73566;BME280;61846;52.970;-3.168;2022-10-16T11:03:22;100012.46;;;19.19;30.34
73566;BME280;61846;52.970;-3.168;2022-10-16T11:05:40;100007.15;;;19.21;30.38
73566;BME280;61846;52.970;-3.168;2022-10-16T11:08:09;100010.30;;;19.56;29.70
73566;BME280;61846;52.970;-3.168;2022-10-16T11:10:33;100015.85;;;19.46;28.91
73566;BME280;61846;52.970;-3.168;2022-10-16T11:12:58;100017.54;;;19.92;27.89
73566;BME280;61846;52.970;-3.168;2022-10-16T11:15:21;100017.74;;;19.47;29.54
73566;BME280;61846;52.970;-3.168;2022-10-16T11:17:48;100016.32;;;19.27;28.49
73566;BME280;61846;52.970;-3.168;2022-10-16T11:20:14;100020.88;;;19.88;28.80
73566;BME280;61846;52.970;-3.168;2022-10-16T11:22:38;100022.02;;;19.88;28.78
73566;BME280;61846;52.970;-3.168;2022-10-16T11:25:04;100024.90;;;19.94;29.06
73566;BME280;61846;52.970;-3.168;2022-10-16T11:27:34;100025.67;;;20.26;28.67
73566;BME280;61846;52.970;-3.168;2022-10-16T11:29:56;100032.74;;;19.45;28.85
73566;BME280;61846;52.970;-3.168;2022-10-16T11:32:22;100031.83;;;19.75;28.51
73566;BME280;61846;52.970;-3.168;2022-10-16T11:34:44;100026.17;;;19.66;28.74
73566;BME280;61846;52.970;-3.168;2022-10-16T11:37:11;100026.95;;;19.26;28.55
73566;BME280;61846;52.970;-3.168;2022-10-16T11:39:33;100033.37;;;19.20;28.52
73566;BME280;61846;52.970;-3.168;2022-10-16T11:42:02;100039.63;;;19.44;28.85
73566;BME280;61846;52.970;-3.168;2022-10-16T11:44:34;100048.46;;;17.23;30.85
73566;BME280;61846;52.970;-3.168;2022-10-16T11:46:53;100044.50;;;17.44;30.99
73566;BME280;61846;52.970;-3.168;2022-10-16T11:49:16;100037.21;;;17.90;30.31
73566;BME280;61846;52.970;-3.168;2022-10-16T11:51:42;100041.12;;;17.63;30.14
73566;BME280;61846;52.970;-3.168;2022-10-16T11:54:14;100043.46;;;17.17;31.62
73566;BME280;61846;52.970;-3.168;2022-10-16T11:56:32;100044.26;;;16.91;31.68
73566;BME280;61846;52.970;-3.168;2022-10-16T11:58:59;100044.34;;;18.14;30.62
73566;BME280;61846;52.970;-3.168;2022-10-16T12:01:25;100046.42;;;18.17;29.90
73566;BME280;61846;52.970;-3.168;2022-10-16T12:03:52;100055.72;;;18.18;29.54
73566;BME280;61846;52.970;-3.168;2022-10-16T12:06:19;100061.69;;;18.64;29.02
73566;BME280;61846;52.970;-3.168;2022-10-16T12:08:37;100062.08;;;18.53;29.41
73566;BME280;61846;52.970;-3.168;2022-10-16T12:11:09;100067.49;;;18.71;29.53
73566;BME280;61846;52.970;-3.168;2022-10-16T12:13:31;100066.53;;;18.11;29.95
73566;BME280;61846;52.970;-3.168;2022-10-16T12:16:05;100061.33;;;18.58;30.07
73566;BME280;61846;52.970;-3.168;2022-10-16T12:18:23;100057.48;;;18.47;30.95
73566;BME280;61846;52.970;-3.168;2022-10-16T12:23:16;100051.71;;;18.34;31.03
73566;BME280;61846;52.970;-3.168;2022-10-16T12:25:36;100055.78;;;18.52;30.35
73566;BME280;61846;52.970;-3.168;2022-10-16T12:28:03;100059.52;;;17.76;30.40
73566;BME280;61846;52.970;-3.168;2022-10-16T12:30:28;100059.81;;;17.86;30.18
73566;BME280;61846;52.970;-3.168;2022-10-16T12:32:54;100067.12;;;18.01;30.32
73566;BME280;61846;52.970;-3.168;2022-10-16T12:35:19;100073.99;;;17.86;30.13
73566;BME280;61846;52.970;-3.168;2022-10-16T12:37:42;100073.60;;;16.27;31.92
73566;BME280;61846;52.970;-3.168;2022-10-16T12:40:14;100074.24;;;16.33;32.46
73566;BME280;61846;52.970;-3.168;2022-10-16T12:42:34;100070.72;;;17.13;31.29
73566;BME280;61846;52.970;-3.168;2022-10-16T12:44:58;100064.88;;;17.02;32.53